sensor_id;sensor_type;location;lat;lon;timestamp;pressure;altitude;pressure_sealevel;temperature;humidity
49030;BME280;43337;52.070;4.508;2023-02-28T00:00:20;103355.03;;;1.54;100.00
49030;BME280;43337;52.070;4.508;2023-02-28T00:02:45;103356.09;;;1.61;100.00
49030;BME280;43337;52.070;4.508;2023-02-28T00:05:13;103362.28;;;1.64;100.00
49030;BME280;43337;52.070;4.508;2023-02-28T00:07:38;103373.75;;;1.69;100.00
49030;BME280;43337;52.070;4.508;2023-02-28T00:10:05;103346.53;;;1.58;100.00
49030;BME280;43337;52.070;4.508;2023-02-28T00:12:33;103372.06;;;1.71;100.00
49030;BME280;43337;52.070;4.508;2023-02-28T00:14:58;103364.13;;;1.67;100.00
49030;BME280;43337;52.070;4.508;2023-02-28T00:17:24;103375.44;;;1.69;100.00
49030;BME280;43337;52.070;4.508;2023-02-28T00:19:50;103381.84;;;1.79;100.00
49030;BME280;43337;52.070;4.508;2023-02-28T00:22:18;103387.19;;;1.83;100.00
49030;BME280;43337;52.070;4.508;2023-02-28T00:24:44;103385.53;;;1.85;100.00
49030;BME280;43337;52.070;4.508;2023-02-28T00:27:09;103370.78;;;1.84;100.00
49030;BME280;43337;52.070;4.508;2023-02-28T00:29:35;103346.06;;;1.70;100.00
49030;BME280;43337;52.070;4.508;2023-02-28T00:32:01;103372.75;;;1.91;100.00
49030;BME280;43337;52.070;4.508;2023-02-28T00:34:26;103366.53;;;1.86;100.00
49030;BME280;43337;52.070;4.508;2023-02-28T00:36:52;103363.06;;;1.86;100.00
49030;BME280;43337;52.070;4.508;2023-02-28T00:39:17;103355.19;;;1.84;100.00
49030;BME280;43337;52.070;4.508;2023-02-28T00:41:43;103343.91;;;1.84;100.00
49030;BME280;43337;52.070;4.508;2023-02-28T00:44:08;103366.03;;;1.97;100.00
49030;BME280;43337;52.070;4.508;2023-02-28T00:46:34;103371.28;;;2.00;100.00
49030;BME280;43337;52.070;4.508;2023-02-28T00:48:59;103371.47;;;2.04;100.00
49030;BME280;43337;52.070;4.508;2023-02-28T00:51:25;103361.88;;;2.03;100.00
49030;BME280;43337;52.070;4.508;2023-02-28T00:53:50;103368.06;;;2.07;100.00
49030;BME280;43337;52.070;4.508;2023-02-28T00:56:16;103351.41;;;2.00;100.00
49030;BME280;43337;52.070;4.508;2023-02-28T00:58:41;103335.50;;;1.91;100.00
49030;BME280;43337;52.070;4.508;2023-02-28T01:01:07;103370.66;;;2.07;100.00
49030;BME280;43337;52.070;4.508;2023-02-28T01:03:32;103375.13;;;2.11;100.00
49030;BME280;43337;52.070;4.508;2023-02-28T01:05:58;103367.25;;;2.08;100.00
49030;BME280;43337;52.070;4.508;2023-02-28T01:08:24;103356.75;;;2.05;100.00
49030;BME280;43337;52.070;4.508;2023-02-28T01:10:51;103359.41;;;2.06;100.00
49030;BME280;43337;52.070;4.508;2023-02-28T01:13:16;103341.03;;;2.00;100.00
49030;BME280;43337;52.070;4.508;2023-02-28T01:15:46;103374.38;;;2.13;100.00
49030;BME280;43337;52.070;4.508;2023-02-28T01:18:13;103372.75;;;2.17;100.00
49030;BME280;43337;52.070;4.508;2023-02-28T01:20:39;103364.09;;;2.16;100.00
49030;BME280;43337;52.070;4.508;2023-02-28T01:23:04;103350.72;;;2.06;100.00
49030;BME280;43337;52.070;4.508;2023-02-28T01:25:30;103372.03;;;2.21;100.00
49030;BME280;43337;52.070;4.508;2023-02-28T01:27:55;103378.22;;;2.25;100.00
49030;BME280;43337;52.070;4.508;2023-02-28T01:30:21;103374.66;;;2.23;100.00
49030;BME280;43337;52.070;4.508;2023-02-28T01:32:46;103342.16;;;2.08;100.00
49030;BME280;43337;52.070;4.508;2023-02-28T01:35:12;103351.84;;;2.14;100.00
49030;BME280;43337;52.070;4.508;2023-02-28T01:37:37;103371.31;;;2.27;100.00
49030;BME280;43337;52.070;4.508;2023-02-28T01:40:03;103373.22;;;2.31;100.00
49030;BME280;43337;52.070;4.508;2023-02-28T01:42:29;103357.41;;;2.25;100.00
49030;BME280;43337;52.070;4.508;2023-02-28T01:47:42;103362.84;;;2.32;100.00
49030;BME280;43337;52.070;4.508;2023-02-28T01:50:15;103359.41;;;2.33;100.00
49030;BME280;43337;52.070;4.508;2023-02-28T01:52:43;103353.31;;;2.31;100.00
49030;BME280;43337;52.070;4.508;2023-02-28T01:55:11;103356.81;;;2.33;100.00
49030;BME280;43337;52.070;4.508;2023-02-28T01:57:45;103335.78;;;2.26;100.00
49030;BME280;43337;52.070;4.508;2023-02-28T02:00:14;103328.78;;;2.23;100.00
49030;BME280;43337;52.070;4.508;2023-02-28T02:02:46;103333.25;;;2.27;100.00
49030;BME280;43337;52.070;4.508;2023-02-28T02:05:19;103346.63;;;2.39;100.00
49030;BME280;43337;52.070;4.508;2023-02-28T02:07:46;103322.66;;;2.21;100.00
49030;BME280;43337;52.070;4.508;2023-02-28T02:13:05;103344.13;;;2.42;100.00
49030;BME280;43337;52.070;4.508;2023-02-28T02:15:40;103331.88;;;2.38;100.00
49030;BME280;43337;52.070;4.508;2023-02-28T02:18:25;103317.81;;;2.33;100.00
49030;BME280;43337;52.070;4.508;2023-02-28T02:34:58;103333.06;;;2.50;100.00
49030;BME280;43337;52.070;4.508;2023-02-28T02:40:42;103322.63;;;2.48;100.00
49030;BME280;43337;52.070;4.508;2023-02-28T02:43:32;103321.03;;;2.53;100.00
49030;BME280;43337;52.070;4.508;2023-02-28T02:46:04;103317.56;;;2.53;100.00
49030;BME280;43337;52.070;4.508;2023-02-28T02:48:34;103307.13;;;2.51;100.00
49030;BME280;43337;52.070;4.508;2023-02-28T02:51:04;103318.44;;;2.53;100.00
49030;BME280;43337;52.070;4.508;2023-02-28T02:53:42;103316.81;;;2.57;100.00
49030;BME280;43337;52.070;4.508;2023-02-28T02:56:12;103307.13;;;2.51;100.00
49030;BME280;43337;52.070;4.508;2023-02-28T02:58:41;103293.94;;;2.45;100.00
49030;BME280;43337;52.070;4.508;2023-02-28T03:01:14;103308.00;;;2.52;100.00
49030;BME280;43337;52.070;4.508;2023-02-28T03:03:41;103319.59;;;2.61;100.00
49030;BME280;43337;52.070;4.508;2023-02-28T03:06:07;103288.63;;;2.42;100.00
49030;BME280;43337;52.070;4.508;2023-02-28T03:08:35;103306.38;;;2.55;100.00
49030;BME280;43337;52.070;4.508;2023-02-28T03:11:04;103321.22;;;2.58;100.00
49030;BME280;43337;52.070;4.508;2023-02-28T03:13:44;103330.03;;;2.63;100.00
49030;BME280;43337;52.070;4.508;2023-02-28T03:22:14;103338.75;;;2.65;100.00
49030;BME280;43337;52.070;4.508;2023-02-28T03:24:50;103337.09;;;2.67;100.00
49030;BME280;43337;52.070;4.508;2023-02-28T03:32:36;103300.22;;;2.52;100.00
49030;BME280;43337;52.070;4.508;2023-02-28T03:35:11;103313.53;;;2.62;100.00
49030;BME280;43337;52.070;4.508;2023-02-28T03:37:41;103325.97;;;2.73;100.00
49030;BME280;43337;52.070;4.508;2023-02-28T03:40:13;103325.16;;;2.74;100.00
49030;BME280;43337;52.070;4.508;2023-02-28T03:42:42;103324.31;;;2.75;100.00
49030;BME280;43337;52.070;4.508;2023-02-28T03:45:12;103308.47;;;2.67;100.00
49030;BME280;43337;52.070;4.508;2023-02-28T03:47:44;103325.28;;;2.78;100.00
49030;BME280;43337;52.070;4.508;2023-02-28T03:50:15;103311.28;;;2.73;100.00
49030;BME280;43337;52.070;4.508;2023-02-28T03:52:47;103309.59;;;2.77;100.00
49030;BME280;43337;52.070;4.508;2023-02-28T03:55:16;103310.69;;;2.83;100.00
49030;BME280;43337;52.070;4.508;2023-02-28T04:01:36;103312.50;;;2.86;100.00
49030;BME280;43337;52.070;4.508;2023-02-28T04:04:03;103319.53;;;2.88;100.00
49030;BME280;43337;52.070;4.508;2023-02-28T04:06:31;103321.19;;;2.86;100.00
49030;BME280;43337;52.070;4.508;2023-02-28T04:08:57;103316.06;;;2.89;100.00
49030;BME280;43337;52.070;4.508;2023-02-28T04:11:38;103316.00;;;2.88;100.00
49030;BME280;43337;52.070;4.508;2023-02-28T04:14:05;103325.75;;;2.93;100.00
49030;BME280;43337;52.070;4.508;2023-02-28T04:16:32;103291.41;;;2.77;100.00
49030;BME280;43337;52.070;4.508;2023-02-28T04:18:57;103322.28;;;2.94;100.00
49030;BME280;43337;52.070;4.508;2023-02-28T04:21:34;103323.22;;;2.97;100.00
49030;BME280;43337;52.070;4.508;2023-02-28T04:24:00;103308.22;;;2.88;100.00
49030;BME280;43337;52.070;4.508;2023-02-28T04:26:33;103311.66;;;2.87;100.00
49030;BME280;43337;52.070;4.508;2023-02-28T04:28:59;103330.16;;;2.96;100.00
49030;BME280;43337;52.070;4.508;2023-02-28T04:31:25;103324.84;;;2.93;100.00
49030;BME280;43337;52.070;4.508;2023-02-28T04:33:51;103317.59;;;2.83;100.00
49030;BME280;43337;52.070;4.508;2023-02-28T04:36:17;103336.25;;;2.97;100.00
49030;BME280;43337;52.070;4.508;2023-02-28T04:38:46;103337.13;;;2.97;100.00
49030;BME280;43337;52.070;4.508;2023-02-28T04:41:12;103335.44;;;2.99;100.00
49030;BME280;43337;52.070;4.508;2023-02-28T04:43:37;103334.63;;;3.00;100.00
49030;BME280;43337;52.070;4.508;2023-02-28T04:46:04;103312.44;;;2.84;100.00
49030;BME280;43337;52.070;4.508;2023-02-28T04:48:32;103322.25;;;2.93;100.00
49030;BME280;43337;52.070;4.508;2023-02-28T04:51:09;103336.41;;;3.03;100.00
49030;BME280;43337;52.070;4.508;2023-02-28T04:53:37;103343.41;;;3.04;100.00
49030;BME280;43337;52.070;4.508;2023-02-28T04:56:03;103337.22;;;3.00;100.00
49030;BME280;43337;52.070;4.508;2023-02-28T04:58:29;103352.00;;;3.03;100.00
49030;BME280;43337;52.070;4.508;2023-02-28T05:01:01;103348.44;;;2.99;100.00
49030;BME280;43337;52.070;4.508;2023-02-28T05:03:27;103335.28;;;2.94;100.00
49030;BME280;43337;52.070;4.508;2023-02-28T05:05:52;103344.19;;;3.01;100.00
49030;BME280;43337;52.070;4.508;2023-02-28T05:08:18;103334.50;;;2.97;100.00
49030;BME280;43337;52.070;4.508;2023-02-28T05:10:43;103337.97;;;2.96;100.00
49030;BME280;43337;52.070;4.508;2023-02-28T05:13:11;103339.75;;;2.99;100.00
49030;BME280;43337;52.070;4.508;2023-02-28T05:15:37;103340.63;;;2.99;100.00
49030;BME280;43337;52.070;4.508;2023-02-28T05:18:02;103334.50;;;2.97;100.00
49030;BME280;43337;52.070;4.508;2023-02-28T05:20:28;103323.88;;;2.89;100.00
49030;BME280;43337;52.070;4.508;2023-02-28T05:22:53;103336.19;;;2.95;100.00
49030;BME280;43337;52.070;4.508;2023-02-28T05:25:21;103339.63;;;2.94;100.00
49030;BME280;43337;52.070;4.508;2023-02-28T05:27:49;103334.28;;;2.89;100.00
49030;BME280;43337;52.070;4.508;2023-02-28T05:30:15;103335.19;;;2.91;100.00
49030;BME280;43337;52.070;4.508;2023-02-28T05:32:41;103327.25;;;2.85;100.00
49030;BME280;43337;52.070;4.508;2023-02-28T05:35:11;103327.03;;;2.79;100.00
49030;BME280;43337;52.070;4.508;2023-02-28T05:37:37;103337.75;;;2.88;100.00
49030;BME280;43337;52.070;4.508;2023-02-28T05:40:04;103347.19;;;2.86;100.00
49030;BME280;43337;52.070;4.508;2023-02-28T05:42:36;103337.56;;;2.84;100.00
49030;BME280;43337;52.070;4.508;2023-02-28T05:45:01;103333.97;;;2.79;100.00
49030;BME280;43337;52.070;4.508;2023-02-28T05:47:26;103338.38;;;2.81;100.00
49030;BME280;43337;52.070;4.508;2023-02-28T05:49:52;103336.59;;;2.80;100.00
49030;BME280;43337;52.070;4.508;2023-02-28T05:52:17;103339.91;;;2.75;100.00
49030;BME280;43337;52.070;4.508;2023-02-28T05:54:43;103340.81;;;2.77;100.00
49030;BME280;43337;52.070;4.508;2023-02-28T05:57:08;103322.44;;;2.71;100.00
49030;BME280;43337;52.070;4.508;2023-02-28T05:59:33;103322.31;;;2.66;100.00
49030;BME280;43337;52.070;4.508;2023-02-28T06:01:59;103316.03;;;2.59;100.00
49030;BME280;43337;52.070;4.508;2023-02-28T06:04:24;103333.50;;;2.63;100.00
49030;BME280;43337;52.070;4.508;2023-02-28T06:06:50;103326.47;;;2.61;100.00
49030;BME280;43337;52.070;4.508;2023-02-28T06:09:17;103331.88;;;2.67;100.00
49030;BME280;43337;52.070;4.508;2023-02-28T06:11:43;103334.38;;;2.64;100.00
49030;BME280;43337;52.070;4.508;2023-02-28T06:14:14;103333.53;;;2.65;100.00
49030;BME280;43337;52.070;4.508;2023-02-28T06:16:40;103329.03;;;2.59;100.00
49030;BME280;43337;52.070;4.508;2023-02-28T06:19:06;103308.78;;;2.49;100.00
49030;BME280;43337;52.070;4.508;2023-02-28T06:21:31;103316.78;;;2.55;100.00
49030;BME280;43337;52.070;4.508;2023-02-28T06:23:58;103336.09;;;2.63;100.00
49030;BME280;43337;52.070;4.508;2023-02-28T06:26:24;103336.84;;;2.59;100.00
49030;BME280;43337;52.070;4.508;2023-02-28T06:28:49;103326.22;;;2.52;100.00
49030;BME280;43337;52.070;4.508;2023-02-28T06:31:17;103331.53;;;2.56;100.00
49030;BME280;43337;52.070;4.508;2023-02-28T06:33:44;103341.94;;;2.56;100.00
49030;BME280;43337;52.070;4.508;2023-02-28T06:36:12;103343.78;;;2.59;100.00
49030;BME280;43337;52.070;4.508;2023-02-28T06:38:38;103318.03;;;2.39;100.00
49030;BME280;43337;52.070;4.508;2023-02-28T06:41:04;103351.25;;;2.50;100.00
49030;BME280;43337;52.070;4.508;2023-02-28T06:43:33;103351.03;;;2.42;100.00
49030;BME280;43337;52.070;4.508;2023-02-28T06:46:00;103348.25;;;2.36;100.00
49030;BME280;43337;52.070;4.508;2023-02-28T06:48:26;103351.59;;;2.32;100.00
49030;BME280;43337;52.070;4.508;2023-02-28T06:50:52;103357.41;;;2.25;100.00
49030;BME280;43337;52.070;4.508;2023-02-28T06:53:25;103359.00;;;2.19;100.00
49030;BME280;43337;52.070;4.508;2023-02-28T06:55:51;103356.03;;;2.09;100.00
49030;BME280;43337;52.070;4.508;2023-02-28T06:58:16;103361.22;;;2.09;100.00
49030;BME280;43337;52.070;4.508;2023-02-28T07:00:45;103366.22;;;2.03;100.00
49030;BME280;43337;52.070;4.508;2023-02-28T07:03:11;103378.34;;;2.04;100.00
49030;BME280;43337;52.070;4.508;2023-02-28T07:05:38;103367.56;;;1.91;100.00
49030;BME280;43337;52.070;4.508;2023-02-28T07:08:05;103371.69;;;1.85;100.00
49030;BME280;43337;52.070;4.508;2023-02-28T07:10:34;103383.75;;;1.84;100.00
49030;BME280;43337;52.070;4.508;2023-02-28T07:13:03;103379.97;;;1.75;100.00
49030;BME280;43337;52.070;4.508;2023-02-28T07:15:29;103375.44;;;1.69;100.00
49030;BME280;43337;52.070;4.508;2023-02-28T07:17:54;103374.19;;;1.58;100.00
49030;BME280;43337;52.070;4.508;2023-02-28T07:20:20;103377.69;;;1.58;100.00
49030;BME280;43337;52.070;4.508;2023-02-28T07:22:46;103381.88;;;1.55;100.00
49030;BME280;43337;52.070;4.508;2023-02-28T07:25:16;103392.19;;;1.53;100.00
49030;BME280;43337;52.070;4.508;2023-02-28T07:27:42;103371.66;;;1.35;100.00
49030;BME280;43337;52.070;4.508;2023-02-28T07:30:08;103392.41;;;1.35;100.00
49030;BME280;43337;52.070;4.508;2023-02-28T07:32:33;103397.53;;;1.34;100.00
49030;BME280;43337;52.070;4.508;2023-02-28T07:35:03;103402.63;;;1.31;100.00
49030;BME280;43337;52.070;4.508;2023-02-28T07:37:29;103392.91;;;1.25;100.00
49030;BME280;43337;52.070;4.508;2023-02-28T07:39:56;103383.94;;;1.17;100.00
49030;BME280;43337;52.070;4.508;2023-02-28T07:42:22;103368.81;;;1.05;100.00
49030;BME280;43337;52.070;4.508;2023-02-28T07:44:47;103410.94;;;1.22;100.00
49030;BME280;43337;52.070;4.508;2023-02-28T07:47:12;103369.56;;;1.03;100.00
49030;BME280;43337;52.070;4.508;2023-02-28T07:49:39;103385.28;;;1.07;100.00
49030;BME280;43337;52.070;4.508;2023-02-28T07:52:06;103414.03;;;1.12;100.00
49030;BME280;43337;52.070;4.508;2023-02-28T07:54:32;103399.22;;;1.09;100.00
49030;BME280;43337;52.070;4.508;2023-02-28T07:56:58;103391.91;;;0.99;100.00
49030;BME280;43337;52.070;4.508;2023-02-28T07:59:23;103385.53;;;0.91;100.00
49030;BME280;43337;52.070;4.508;2023-02-28T08:01:49;103406.66;;;1.00;100.00
49030;BME280;43337;52.070;4.508;2023-02-28T08:04:16;103378.19;;;0.79;100.00
49030;BME280;43337;52.070;4.508;2023-02-28T08:06:42;103413.31;;;0.93;100.00
49030;BME280;43337;52.070;4.508;2023-02-28T08:09:07;103390.31;;;0.80;100.00
49030;BME280;43337;52.070;4.508;2023-02-28T08:11:33;103410.56;;;0.89;100.00
49030;BME280;43337;52.070;4.508;2023-02-28T08:13:58;103408.53;;;0.82;100.00
49030;BME280;43337;52.070;4.508;2023-02-28T08:16:24;103404.16;;;0.81;100.00
49030;BME280;43337;52.070;4.508;2023-02-28T08:18:52;103398.88;;;0.78;100.00
49030;BME280;43337;52.070;4.508;2023-02-28T08:21:18;103409.56;;;0.85;100.00
49030;BME280;43337;52.070;4.508;2023-02-28T08:23:47;103405.00;;;0.80;100.00
49030;BME280;43337;52.070;4.508;2023-02-28T08:26:13;103405.81;;;0.79;100.00
49030;BME280;43337;52.070;4.508;2023-02-28T08:28:39;103393.47;;;0.73;100.00
49030;BME280;43337;52.070;4.508;2023-02-28T08:31:12;103414.81;;;0.88;100.00
49030;BME280;43337;52.070;4.508;2023-02-28T08:33:39;103412.34;;;0.91;100.00
49030;BME280;43337;52.070;4.508;2023-02-28T08:36:06;103395.69;;;0.85;100.00
49030;BME280;43337;52.070;4.508;2023-02-28T08:38:32;103391.56;;;0.90;100.00
49030;BME280;43337;52.070;4.508;2023-02-28T08:40:58;103420.56;;;1.02;100.00
49030;BME280;43337;52.070;4.508;2023-02-28T08:43:24;103406.00;;;1.06;100.00
49030;BME280;43337;52.070;4.508;2023-02-28T08:45:54;103406.25;;;1.12;100.00
49030;BME280;43337;52.070;4.508;2023-02-28T08:48:31;103381.69;;;1.04;100.00
49030;BME280;43337;52.070;4.508;2023-02-28T08:51:06;103390.69;;;1.12;100.00
49030;BME280;43337;52.070;4.508;2023-02-28T08:53:35;103388.25;;;1.16;100.00
49030;BME280;43337;52.070;4.508;2023-02-28T08:56:08;103386.66;;;1.20;100.00
49030;BME280;43337;52.070;4.508;2023-02-28T08:58:35;103393.84;;;1.27;100.00
49030;BME280;43337;52.070;4.508;2023-02-28T09:01:07;103390.47;;;1.30;100.00
49030;BME280;43337;52.070;4.508;2023-02-28T09:03:33;103386.06;;;1.27;100.00
49030;BME280;43337;52.070;4.508;2023-02-28T09:06:00;103385.44;;;1.34;100.00
49030;BME280;43337;52.070;4.508;2023-02-28T09:08:28;103362.75;;;1.29;100.00
49030;BME280;43337;52.070;4.508;2023-02-28T09:10:55;103367.09;;;1.30;100.00
49030;BME280;43337;52.070;4.508;2023-02-28T09:13:23;103385.84;;;1.45;100.00
49030;BME280;43337;52.070;4.508;2023-02-28T09:15:48;103393.56;;;1.43;100.00
49030;BME280;43337;52.070;4.508;2023-02-28T09:18:14;103389.28;;;1.44;100.00
49030;BME280;43337;52.070;4.508;2023-02-28T09:20:41;103395.88;;;1.60;100.00
49030;BME280;43337;52.070;4.508;2023-02-28T09:23:08;103388.25;;;1.64;100.00
49030;BME280;43337;52.070;4.508;2023-02-28T09:25:34;103391.81;;;1.66;100.00
49030;BME280;43337;52.070;4.508;2023-02-28T09:28:00;103400.78;;;1.76;100.00
49030;BME280;43337;52.070;4.508;2023-02-28T09:30:25;103400.13;;;1.82;100.00
49030;BME280;43337;52.070;4.508;2023-02-28T09:32:50;103405.53;;;1.88;100.00
49030;BME280;43337;52.070;4.508;2023-02-28T09:35:21;103402.22;;;1.92;100.00
49030;BME280;43337;52.070;4.508;2023-02-28T09:37:48;103400.59;;;1.95;100.00
49030;BME280;43337;52.070;4.508;2023-02-28T09:40:14;103385.94;;;1.96;100.00
49030;BME280;43337;52.070;4.508;2023-02-28T09:42:42;103386.72;;;1.95;100.00
49030;BME280;43337;52.070;4.508;2023-02-28T09:45:24;103386.94;;;2.01;100.00
49030;BME280;43337;52.070;4.508;2023-02-28T09:47:54;103384.66;;;2.10;100.00
49030;BME280;43337;52.070;4.508;2023-02-28T09:52:58;103394.47;;;2.19;100.00
49030;BME280;43337;52.070;4.508;2023-02-28T09:55:37;103393.75;;;2.23;100.00
49030;BME280;43337;52.070;4.508;2023-02-28T09:58:04;103383.16;;;2.17;100.00
49030;BME280;43337;52.070;4.508;2023-02-28T10:00:37;103403.56;;;2.32;100.00
49030;BME280;43337;52.070;4.508;2023-02-28T10:03:24;103404.69;;;2.40;100.00
49030;BME280;43337;52.070;4.508;2023-02-28T10:05:55;103409.06;;;2.41;100.00
49030;BME280;43337;52.070;4.508;2023-02-28T10:08:29;103402.38;;;2.49;100.00
49030;BME280;43337;52.070;4.508;2023-02-28T10:11:07;103403.44;;;2.54;100.00
49030;BME280;43337;52.070;4.508;2023-02-28T10:13:54;103404.25;;;2.53;100.00
49030;BME280;43337;52.070;4.508;2023-02-28T10:16:39;103387.63;;;2.48;100.00
49030;BME280;43337;52.070;4.508;2023-02-28T10:19:13;103391.25;;;2.53;100.00
49030;BME280;43337;52.070;4.508;2023-02-28T10:21:48;103369.22;;;2.42;100.00
49030;BME280;43337;52.070;4.508;2023-02-28T10:24:43;103407.06;;;2.59;100.00
49030;BME280;43337;52.070;4.508;2023-02-28T10:27:20;103401.00;;;2.60;100.00
49030;BME280;43337;52.070;4.508;2023-02-28T10:29:49;103408.22;;;2.69;100.00
49030;BME280;43337;52.070;4.508;2023-02-28T10:32:18;103394.31;;;2.67;100.00
49030;BME280;43337;52.070;4.508;2023-02-28T10:34:44;103408.31;;;2.72;100.00
49030;BME280;43337;52.070;4.508;2023-02-28T10:37:11;103403.13;;;2.72;100.00
49030;BME280;43337;52.070;4.508;2023-02-28T10:39:46;103410.16;;;2.75;100.00
49030;BME280;43337;52.070;4.508;2023-02-28T10:42:38;103404.84;;;2.72;100.00
49030;BME280;43337;52.070;4.508;2023-02-28T10:45:13;103406.81;;;2.79;100.00
49030;BME280;43337;52.070;4.508;2023-02-28T10:47:52;103417.19;;;2.77;100.00
49030;BME280;43337;52.070;4.508;2023-02-28T11:01:44;103400.66;;;2.77;100.00
49030;BME280;43337;52.070;4.508;2023-02-28T11:04:31;103387.84;;;2.83;100.00
49030;BME280;43337;52.070;4.508;2023-02-28T11:09:33;103381.50;;;3.03;100.00
49030;BME280;43337;52.070;4.508;2023-02-28T11:12:08;103384.72;;;3.23;100.00
49030;BME280;43337;52.070;4.508;2023-02-28T11:14:50;103383.34;;;3.36;100.00
49030;BME280;43337;52.070;4.508;2023-02-28T11:17:22;103384.31;;;3.39;100.00
49030;BME280;43337;52.070;4.508;2023-02-28T11:19:51;103375.75;;;3.43;100.00
49030;BME280;43337;52.070;4.508;2023-02-28T11:22:24;103372.41;;;3.48;100.00
49030;BME280;43337;52.070;4.508;2023-02-28T11:24:55;103357.53;;;3.43;100.00
49030;BME280;43337;52.070;4.508;2023-02-28T11:29:57;103366.81;;;3.65;100.00
49030;BME280;43337;52.070;4.508;2023-02-28T11:32:27;103371.47;;;3.77;100.00
49030;BME280;43337;52.070;4.508;2023-02-28T11:35:26;103369.88;;;3.84;100.00
49030;BME280;43337;52.070;4.508;2023-02-28T11:37:50;103366.66;;;3.92;100.00
49030;BME280;43337;52.070;4.508;2023-02-28T11:40:18;103364.31;;;4.03;100.00
49030;BME280;43337;52.070;4.508;2023-02-28T11:42:55;103364.38;;;4.06;100.00
49030;BME280;43337;52.070;4.508;2023-02-28T11:45:42;103357.59;;;4.11;100.00
49030;BME280;43337;52.070;4.508;2023-02-28T11:53:22;103346.25;;;4.11;100.00
49030;BME280;43337;52.070;4.508;2023-02-28T11:58:36;103339.94;;;4.01;100.00
49030;BME280;43337;52.070;4.508;2023-02-28T12:06:40;103333.28;;;4.14;100.00
49030;BME280;43337;52.070;4.508;2023-02-28T12:14:49;103331.28;;;4.38;100.00
49030;BME280;43337;52.070;4.508;2023-02-28T12:23:07;103322.81;;;4.49;100.00
49030;BME280;43337;52.070;4.508;2023-02-28T12:28:12;103322.81;;;4.49;100.00
49030;BME280;43337;52.070;4.508;2023-02-28T12:30:43;103316.88;;;4.56;100.00
49030;BME280;43337;52.070;4.508;2023-02-28T12:33:17;103312.66;;;4.61;100.00
49030;BME280;43337;52.070;4.508;2023-02-28T12:35:52;103317.09;;;4.65;100.00
49030;BME280;43337;52.070;4.508;2023-02-28T12:38:27;103297.91;;;4.63;91.32
49030;BME280;43337;52.070;4.508;2023-02-28T12:41:01;103294.50;;;4.65;100.00
49030;BME280;43337;52.070;4.508;2023-02-28T12:43:33;103301.56;;;4.70;100.00
49030;BME280;43337;52.070;4.508;2023-02-28T12:46:07;103297.22;;;4.72;100.00
49030;BME280;43337;52.070;4.508;2023-02-28T12:48:55;103307.03;;;4.83;100.00
49030;BME280;43337;52.070;4.508;2023-02-28T12:51:22;103303.50;;;4.80;99.65
49030;BME280;43337;52.070;4.508;2023-02-28T12:53:58;103299.34;;;4.89;100.00
49030;BME280;43337;52.070;4.508;2023-02-28T12:56:46;103301.25;;;4.97;100.00
49030;BME280;43337;52.070;4.508;2023-02-28T13:04:56;103299.09;;;5.20;93.77
49030;BME280;43337;52.070;4.508;2023-02-28T13:10:13;103273.84;;;5.20;90.64
49030;BME280;43337;52.070;4.508;2023-02-28T13:12:49;103269.50;;;5.21;85.01
49030;BME280;43337;52.070;4.508;2023-02-28T13:15:21;103270.38;;;5.20;92.08
49030;BME280;43337;52.070;4.508;2023-02-28T13:17:51;103282.72;;;5.28;90.57
49030;BME280;43337;52.070;4.508;2023-02-28T13:22:51;103262.84;;;5.36;94.23
49030;BME280;43337;52.070;4.508;2023-02-28T13:27:59;103262.16;;;5.47;95.16
49030;BME280;43337;52.070;4.508;2023-02-28T13:33:28;103253.59;;;5.55;72.50
49030;BME280;43337;52.070;4.508;2023-02-28T13:36:23;103246.69;;;5.57;78.26
49030;BME280;43337;52.070;4.508;2023-02-28T13:38:54;103246.81;;;5.65;71.72
49030;BME280;43337;52.070;4.508;2023-02-28T13:44:07;103246.94;;;5.73;90.77
49030;BME280;43337;52.070;4.508;2023-02-28T13:46:35;103248.69;;;5.75;91.05
49030;BME280;43337;52.070;4.508;2023-02-28T13:49:26;103234.00;;;5.82;85.33
49030;BME280;43337;52.070;4.508;2023-02-28T14:00:21;103246.53;;;6.03;79.85
49030;BME280;43337;52.070;4.508;2023-02-28T14:03:05;103242.28;;;6.08;86.70
49030;BME280;43337;52.070;4.508;2023-02-28T14:05:34;103229.16;;;6.06;85.05
49030;BME280;43337;52.070;4.508;2023-02-28T14:08:06;103234.47;;;6.11;83.68
49030;BME280;43337;52.070;4.508;2023-02-28T14:10:42;103230.13;;;6.11;79.80
49030;BME280;43337;52.070;4.508;2023-02-28T14:15:57;103217.88;;;6.10;79.47
49030;BME280;43337;52.070;4.508;2023-02-28T14:29:46;103216.47;;;6.32;80.90
49030;BME280;43337;52.070;4.508;2023-02-28T14:32:35;103207.75;;;6.33;71.83
49030;BME280;43337;52.070;4.508;2023-02-28T14:37:54;103213.06;;;6.38;78.08
49030;BME280;43337;52.070;4.508;2023-02-28T14:40:27;103215.69;;;6.40;70.20
49030;BME280;43337;52.070;4.508;2023-02-28T14:43:04;103222.72;;;6.44;73.87
49030;BME280;43337;52.070;4.508;2023-02-28T14:45:32;103201.69;;;6.36;73.06
49030;BME280;43337;52.070;4.508;2023-02-28T14:48:00;103211.34;;;6.42;76.42
49030;BME280;43337;52.070;4.508;2023-02-28T14:50:30;103207.91;;;6.44;71.22
49030;BME280;43337;52.070;4.508;2023-02-28T14:52:56;103222.81;;;6.53;72.74
49030;BME280;43337;52.070;4.508;2023-02-28T14:55:29;103198.28;;;6.43;67.09
49030;BME280;43337;52.070;4.508;2023-02-28T14:57:57;103214.16;;;6.55;71.58
49030;BME280;43337;52.070;4.508;2023-02-28T15:00:24;103218.50;;;6.56;69.58
49030;BME280;43337;52.070;4.508;2023-02-28T15:02:50;103222.81;;;6.53;68.64
49030;BME280;43337;52.070;4.508;2023-02-28T15:05:23;103210.56;;;6.49;66.10
49030;BME280;43337;52.070;4.508;2023-02-28T15:07:49;103210.44;;;6.38;67.63
49030;BME280;43337;52.070;4.508;2023-02-28T15:10:26;103216.63;;;6.43;67.81